Time;durP1;ratioP1;P1;durP2;ratioP2;P2;SDS_P1;SDS_P2;PMS_P1;PMS_P2;Temp;Humidity;BMP_temperature;BMP_pressure;BME280_temperature;BME280_humidity;BME280_pressure;Samples;Min_cycle;Max_cycle;Signal;HPM_P1;HPM_P2
2023/07/29 00:01:49;;;;;;;1.70;1.60;;;19.80;99.90;;;;;;945655;148;27333;-75
2023/07/29 00:04:14;;;;;;;2.33;1.82;;;19.80;99.90;;;;;;962474;146;27390;-75
2023/07/29 00:06:41;;;;;;;2.00;1.90;;;19.80;99.90;;;;;;963185;146;27432;-75
2023/07/29 00:09:08;;;;;;;2.00;1.90;;;19.80;99.90;;;;;;962936;146;27434;-75
2023/07/29 00:11:34;;;;;;;2.12;1.72;;;19.80;99.90;;;;;;965185;145;27342;-75
2023/07/29 00:14:01;;;;;;;1.87;1.72;;;19.80;99.90;;;;;;944402;148;27392;-75
2023/07/29 00:16:27;;;;;;;1.70;1.60;;;19.80;99.90;;;;;;962647;146;27303;-75
2023/07/29 00:18:54;;;;;;;1.80;1.70;;;19.80;99.90;;;;;;965912;145;27349;-75
2023/07/29 00:21:20;;;;;;;1.65;1.50;;;19.90;99.90;;;;;;946100;148;27465;-75
2023/07/29 00:23:47;;;;;;;2.72;1.90;;;19.90;99.90;;;;;;962652;146;27311;-75
2023/07/29 00:26:14;;;;;;;1.95;1.85;;;19.90;99.90;;;;;;945189;148;27449;-75
2023/07/29 00:28:40;;;;;;;1.70;1.60;;;19.90;99.90;;;;;;963404;146;27735;-75
2023/07/29 00:31:10;;;;;;;1.98;1.87;;;20.00;99.90;;;;;;945627;148;27446;-75
2023/07/29 00:33:36;;;;;;;2.77;2.00;;;20.00;99.90;;;;;;962272;146;27307;-75
2023/07/29 00:36:03;;;;;;;1.90;1.80;;;20.10;99.90;;;;;;953265;147;27401;-76
2023/07/29 00:38:30;;;;;;;2.30;1.62;;;20.10;99.90;;;;;;962473;146;27303;-75
2023/07/29 00:40:59;;;;;;;1.92;1.82;;;20.20;99.90;;;;;;965623;145;27800;-75
2023/07/29 00:43:25;;;;;;;1.77;1.67;;;20.20;99.90;;;;;;964406;145;27411;-75
2023/07/29 00:45:52;;;;;;;2.08;1.55;;;20.20;99.90;;;;;;943794;148;27299;-75
2023/07/29 00:48:19;;;;;;;1.72;1.62;;;20.30;99.90;;;;;;963663;146;27450;-75
2023/07/29 00:50:45;;;;;;;1.70;1.60;;;20.40;99.90;;;;;;962581;146;27324;-75
2023/07/29 00:53:12;;;;;;;3.00;1.75;;;20.40;99.90;;;;;;945698;148;27324;-75
2023/07/29 00:55:38;;;;;;;1.98;1.80;;;20.40;99.90;;;;;;946320;148;27438;-75
2023/07/29 00:58:05;;;;;;;3.12;1.72;;;20.40;99.90;;;;;;962561;146;27376;-75
2023/07/29 01:00:32;;;;;;;1.77;1.67;;;20.50;99.90;;;;;;962164;146;27416;-75
2023/07/29 01:02:58;;;;;;;1.30;1.20;;;20.50;99.90;;;;;;946893;148;27360;-75
2023/07/29 01:05:25;;;;;;;2.37;1.57;;;20.50;99.90;;;;;;942943;149;27494;-75
2023/07/29 01:08:00;;;;;;;1.62;1.52;;;20.60;99.90;;;;;;960943;146;27436;-75
2023/07/29 01:10:36;;;;;;;1.72;1.62;;;20.60;99.90;;;;;;959458;146;27327;-75
2023/07/29 01:13:18;;;;;;;1.55;1.45;;;20.60;99.90;;;;;;961893;146;27475;-76
2023/07/29 01:15:47;;;;;;;2.20;1.55;;;20.60;99.90;;;;;;960127;146;27431;-75
2023/07/29 01:18:26;;;;;;;1.70;1.60;;;20.60;99.90;;;;;;954950;146;27806;-75
2023/07/29 01:20:52;;;;;;;1.77;1.67;;;20.60;99.90;;;;;;924277;150;27350;-76
2023/07/29 01:23:25;;;;;;;1.72;1.62;;;20.60;99.90;;;;;;949527;147;27372;-75
2023/07/29 01:25:52;;;;;;;1.70;1.60;;;20.60;99.90;;;;;;949304;147;27434;-75
2023/07/29 01:28:18;;;;;;;1.67;1.57;;;20.60;99.90;;;;;;948521;146;27432;-75
2023/07/29 01:30:45;;;;;;;2.60;1.62;;;20.60;99.90;;;;;;932888;150;27382;-75
2023/07/29 01:33:17;;;;;;;2.17;1.90;;;20.60;99.90;;;;;;934024;149;27794;-75
2023/07/29 01:35:46;;;;;;;5.22;2.27;;;20.70;99.90;;;;;;926936;149;27414;-75
2023/07/29 01:38:13;;;;;;;1.45;1.35;;;20.60;99.90;;;;;;949582;147;27332;-75
2023/07/29 01:40:39;;;;;;;1.90;1.80;;;20.70;99.90;;;;;;931959;150;27327;-75
2023/07/29 01:43:08;;;;;;;1.47;1.37;;;20.70;99.90;;;;;;949774;147;27444;-75
2023/07/29 01:45:36;;;;;;;1.57;1.42;;;20.70;99.90;;;;;;950001;147;27313;-76
2023/07/29 01:47:59;;;;;;;1.80;1.65;;;20.70;99.90;;;;;;932656;150;27443;-76
2023/07/29 01:50:26;;;;;;;1.50;1.40;;;20.70;99.90;;;;;;948856;147;27328;-76
2023/07/29 01:52:52;;;;;;;1.70;1.60;;;20.70;99.90;;;;;;949879;147;27425;-76
2023/07/29 01:55:19;;;;;;;1.35;1.35;;;20.70;99.90;;;;;;948630;146;27349;-76
2023/07/29 01:57:46;;;;;;;1.80;1.50;;;20.70;99.90;;;;;;931819;150;27453;-75
2023/07/29 02:00:12;;;;;;;1.60;1.50;;;20.70;99.90;;;;;;949465;147;27301;-75
2023/07/29 02:02:39;;;;;;;2.67;1.32;;;20.80;99.90;;;;;;950094;147;27344;-75
2023/07/29 02:05:05;;;;;;;1.37;1.37;;;20.80;99.90;;;;;;951371;147;27884;-75
2023/07/29 02:07:32;;;;;;;1.62;1.50;;;20.80;99.90;;;;;;950489;147;27347;-75
2023/07/29 02:09:59;;;;;;;1.70;1.57;;;20.80;99.90;;;;;;950314;147;27313;-76
2023/07/29 02:12:25;;;;;;;1.60;1.50;;;20.80;99.90;;;;;;950825;147;27320;-75
2023/07/29 02:14:52;;;;;;;2.60;1.62;;;20.80;99.90;;;;;;948897;147;27775;-76
2023/07/29 02:17:18;;;;;;;1.90;1.70;;;20.80;99.90;;;;;;934178;149;27348;-76
2023/07/29 02:19:45;;;;;;;1.87;1.77;;;20.80;99.90;;;;;;950297;147;27350;-75
2023/07/29 02:22:11;;;;;;;1.60;1.50;;;20.70;99.90;;;;;;934337;149;27444;-75
2023/07/29 02:24:38;;;;;;;1.57;1.47;;;20.70;99.90;;;;;;949528;147;27375;-75
2023/07/29 02:27:05;;;;;;;1.80;1.70;;;20.70;99.90;;;;;;949930;147;27340;-75
2023/07/29 02:29:32;;;;;;;1.30;1.30;;;20.60;99.90;;;;;;932877;150;27371;-75
2023/07/29 02:31:58;;;;;;;1.60;1.50;;;20.60;99.90;;;;;;949203;147;27321;-75
2023/07/29 02:34:24;;;;;;;1.62;1.52;;;20.60;99.90;;;;;;948203;147;27464;-75
2023/07/29 02:36:51;;;;;;;1.40;1.30;;;20.60;99.90;;;;;;930472;150;27490;-75
2023/07/29 02:39:18;;;;;;;2.60;1.60;;;20.60;99.90;;;;;;925783;150;27382;-74
2023/07/29 02:41:44;;;;;;;1.65;1.55;;;20.60;99.90;;;;;;942856;149;27360;-75
2023/07/29 02:44:11;;;;;;;1.60;1.50;;;20.60;99.90;;;;;;946786;147;27300;-75
2023/07/29 02:46:37;;;;;;;1.60;1.50;;;20.60;99.90;;;;;;948283;147;27312;-75
2023/07/29 02:49:04;;;;;;;3.15;1.70;;;20.70;99.90;;;;;;942275;149;27365;-75
2023/07/29 02:51:31;;;;;;;1.52;1.42;;;20.70;99.90;;;;;;932908;150;27436;-75
2023/07/29 02:53:57;;;;;;;1.70;1.60;;;20.70;99.90;;;;;;949303;147;27365;-75
2023/07/29 02:56:24;;;;;;;1.55;1.47;;;20.80;99.90;;;;;;951081;147;27324;-76
2023/07/29 02:58:53;;;;;;;1.60;1.50;;;20.80;99.90;;;;;;949972;147;27348;-76
2023/07/29 03:01:20;;;;;;;1.60;1.50;;;20.80;99.90;;;;;;949727;147;27348;-76
2023/07/29 03:03:46;;;;;;;1.20;1.20;;;20.80;99.90;;;;;;949884;147;27413;-76
2023/07/29 03:06:13;;;;;;;1.70;1.60;;;20.80;99.90;;;;;;950302;146;27307;-76
2023/07/29 03:08:39;;;;;;;1.62;1.52;;;20.80;99.90;;;;;;948056;146;27442;-76
2023/07/29 03:11:06;;;;;;;1.35;1.25;;;20.80;99.90;;;;;;933086;150;27369;-76
2023/07/29 03:13:33;;;;;;;1.65;1.50;;;20.80;99.90;;;;;;949615;147;27307;-76
2023/07/29 03:16:08;;;;;;;1.70;1.40;;;20.80;99.90;;;;;;948973;146;27745;-76
2023/07/29 03:18:35;;;;;;;1.60;1.50;;;20.80;99.90;;;;;;928435;148;27376;-75
2023/07/29 03:21:01;;;;;;;1.40;1.30;;;20.80;99.90;;;;;;968292;145;27342;-76
2023/07/29 03:23:28;;;;;;;1.45;1.35;;;20.80;99.90;;;;;;947089;148;27449;-76
2023/07/29 03:25:58;;;;;;;1.60;1.50;;;20.80;99.90;;;;;;949192;148;27356;-76
2023/07/29 03:28:29;;;;;;;1.62;1.52;;;20.90;99.90;;;;;;949583;148;27391;-76
2023/07/29 03:30:56;;;;;;;2.10;1.45;;;20.90;99.90;;;;;;966005;148;27349;-76
2023/07/29 03:33:23;;;;;;;1.92;1.30;;;20.90;99.90;;;;;;965938;146;27314;-76
2023/07/29 03:35:49;;;;;;;1.80;1.70;;;20.90;99.90;;;;;;967927;145;27677;-76
2023/07/29 03:38:16;;;;;;;1.60;1.50;;;20.90;99.90;;;;;;968130;145;27336;-76
2023/07/29 03:40:42;;;;;;;2.00;1.80;;;20.90;99.90;;;;;;944285;148;27391;-76
2023/07/29 03:43:09;;;;;;;1.50;1.40;;;20.90;99.90;;;;;;954236;148;27342;-75
2023/07/29 03:45:35;;;;;;;2.40;1.72;;;21.00;99.90;;;;;;967056;148;27812;-76
2023/07/29 03:48:02;;;;;;;1.77;1.67;;;20.90;99.90;;;;;;966164;148;27336;-76
2023/07/29 03:50:29;;;;;;;1.92;1.72;;;20.90;99.90;;;;;;967053;148;27350;-76
2023/07/29 03:52:55;;;;;;;1.70;1.60;;;20.90;99.90;;;;;;965718;148;27351;-76
2023/07/29 03:55:22;;;;;;;1.20;1.20;;;20.90;99.90;;;;;;966971;148;27398;-76
2023/07/29 03:57:48;;;;;;;2.15;2.02;;;20.90;99.90;;;;;;968019;145;27310;-76
2023/07/29 04:00:15;;;;;;;2.30;2.02;;;20.90;99.90;;;;;;967636;145;27365;-75
2023/07/29 04:02:42;;;;;;;1.70;1.60;;;20.80;99.90;;;;;;967179;145;27334;-76
2023/07/29 04:05:08;;;;;;;1.95;1.80;;;20.80;99.90;;;;;;948154;148;27422;-76
2023/07/29 04:07:35;;;;;;;1.60;1.50;;;20.80;99.90;;;;;;949904;148;27348;-76
2023/07/29 04:10:01;;;;;;;1.55;1.52;;;20.80;99.90;;;;;;967902;145;27788;-76
2023/07/29 04:12:28;;;;;;;1.62;1.52;;;20.80;99.90;;;;;;945604;148;27391;-76
2023/07/29 04:14:54;;;;;;;2.08;1.85;;;20.70;99.90;;;;;;967989;145;27318;-76
2023/07/29 04:17:21;;;;;;;1.77;1.57;;;20.70;99.90;;;;;;967520;145;27770;-76
2023/07/29 04:19:48;;;;;;;2.00;1.90;;;20.70;99.90;;;;;;969366;145;27365;-76
2023/07/29 04:22:14;;;;;;;1.62;1.50;;;20.70;99.90;;;;;;948156;148;27509;-76
2023/07/29 04:24:41;;;;;;;1.77;1.67;;;20.70;99.90;;;;;;966846;145;27330;-76
2023/07/29 04:27:07;;;;;;;2.22;2.02;;;20.60;99.90;;;;;;951676;148;27355;-76
2023/07/29 04:29:35;;;;;;;2.75;1.90;;;20.70;99.90;;;;;;947259;148;27754;-76
2023/07/29 04:32:01;;;;;;;2.02;1.92;;;20.70;99.90;;;;;;963041;147;27907;-76
2023/07/29 04:34:27;;;;;;;1.75;1.65;;;20.70;99.90;;;;;;967426;145;27381;-76
2023/07/29 04:36:54;;;;;;;2.10;2.00;;;20.70;99.90;;;;;;967452;145;27415;-76
2023/07/29 04:39:20;;;;;;;2.15;1.95;;;20.70;99.90;;;;;;967700;145;27382;-76
2023/07/29 04:41:47;;;;;;;2.20;2.00;;;20.80;99.90;;;;;;967929;145;27408;-76
2023/07/29 04:44:14;;;;;;;2.72;2.12;;;20.80;99.90;;;;;;947156;148;27367;-76
2023/07/29 04:46:40;;;;;;;2.17;2.02;;;20.80;99.90;;;;;;943505;148;27388;-76
2023/07/29 04:49:07;;;;;;;2.27;2.08;;;20.90;99.90;;;;;;968713;145;27423;-76
2023/07/29 04:51:33;;;;;;;4.15;1.90;;;20.90;99.90;;;;;;967139;145;27309;-76
2023/07/29 04:54:00;;;;;;;2.08;1.92;;;21.00;99.90;;;;;;949821;148;27449;-76
2023/07/29 04:56:27;;;;;;;2.50;2.30;;;21.00;99.90;;;;;;967852;145;27415;-76
2023/07/29 04:58:53;;;;;;;2.20;2.05;;;21.10;99.90;;;;;;967562;145;27310;-76
2023/07/29 05:01:20;;;;;;;2.10;1.90;;;21.10;99.90;;;;;;969500;145;27310;-76
2023/07/29 05:03:46;;;;;;;1.77;1.67;;;21.10;99.90;;;;;;949764;148;27376;-76
2023/07/29 05:06:13;;;;;;;2.45;1.67;;;21.20;99.90;;;;;;951030;148;27465;-76
2023/07/29 05:08:39;;;;;;;2.20;2.10;;;21.20;99.90;;;;;;967259;145;27321;-76
2023/07/29 05:11:06;;;;;;;2.27;2.02;;;21.30;99.90;;;;;;967994;145;27306;-76
2023/07/29 05:13:33;;;;;;;2.60;2.40;;;21.30;99.90;;;;;;947203;148;27469;-76
2023/07/29 05:15:59;;;;;;;2.05;1.92;;;21.40;99.90;;;;;;965438;148;27419;-76
2023/07/29 05:18:26;;;;;;;1.92;1.82;;;21.50;99.90;;;;;;958211;147;27436;-76
2023/07/29 05:20:52;;;;;;;2.20;2.00;;;21.60;99.90;;;;;;959021;145;27515;-76
2023/07/29 05:23:19;;;;;;;2.08;1.98;;;21.70;99.90;;;;;;926119;150;27434;-76
2023/07/29 05:25:46;;;;;;;2.90;2.30;;;21.80;99.90;;;;;;943574;148;27325;-76
2023/07/29 05:28:12;;;;;;;1.65;1.55;;;21.90;99.90;;;;;;943450;149;27318;-76
2023/07/29 05:30:40;;;;;;;2.35;2.15;;;22.00;99.90;;;;;;949813;147;27404;-76
2023/07/29 05:33:07;;;;;;;2.00;1.80;;;22.10;99.90;;;;;;941612;149;27341;-76
2023/07/29 05:35:32;;;;;;;1.87;1.77;;;22.10;99.90;;;;;;942273;149;27404;-73
2023/07/29 05:37:59;;;;;;;2.17;1.92;;;22.20;99.90;;;;;;942022;149;27370;-73
2023/07/29 05:40:25;;;;;;;2.00;1.90;;;22.20;99.90;;;;;;932965;150;27410;-73
2023/07/29 05:42:52;;;;;;;2.00;1.80;;;22.30;99.90;;;;;;950582;147;27409;-72
2023/07/29 05:45:18;;;;;;;2.00;1.90;;;22.30;99.90;;;;;;950273;147;27324;-73
2023/07/29 05:47:45;;;;;;;1.98;1.87;;;22.40;99.90;;;;;;932977;150;27448;-72
2023/07/29 05:50:12;;;;;;;1.75;1.65;;;22.40;99.90;;;;;;950246;147;27306;-73
2023/07/29 05:52:38;;;;;;;1.75;1.65;;;22.50;99.90;;;;;;949979;147;27320;-73
2023/07/29 05:55:05;;;;;;;1.80;1.65;;;22.60;99.90;;;;;;934141;150;27845;-73
2023/07/29 05:57:31;;;;;;;3.27;1.95;;;22.70;99.90;;;;;;950908;147;27709;-73
2023/07/29 05:59:58;;;;;;;3.42;1.70;;;22.70;99.90;;;;;;949550;147;27349;-73
2023/07/29 06:02:24;;;;;;;1.40;1.30;;;22.80;99.90;;;;;;925670;150;27411;-73
2023/07/29 06:04:51;;;;;;;1.67;1.57;;;22.90;99.90;;;;;;941551;149;27836;-73
2023/07/29 06:07:18;;;;;;;1.75;1.65;;;23.00;99.90;;;;;;942513;148;27442;-73
2023/07/29 06:09:44;;;;;;;1.67;1.57;;;23.00;99.90;;;;;;941888;148;27354;-73
2023/07/29 06:12:11;;;;;;;1.92;1.65;;;23.10;99.90;;;;;;941927;149;27376;-73
2023/07/29 06:14:37;;;;;;;2.33;1.47;;;23.10;99.90;;;;;;941694;149;27331;-73
2023/07/29 06:17:04;;;;;;;1.50;1.40;;;23.20;99.90;;;;;;946466;147;27281;-72
2023/07/29 06:19:31;;;;;;;1.60;1.50;;;23.20;99.90;;;;;;940534;149;27370;-73
2023/07/29 06:21:57;;;;;;;1.50;1.40;;;23.30;99.90;;;;;;945520;148;27412;-73
2023/07/29 06:24:24;;;;;;;1.75;1.57;;;23.30;99.90;;;;;;954460;146;27397;-73
2023/07/29 06:26:50;;;;;;;1.22;1.22;;;23.30;99.90;;;;;;953127;146;27292;-73
2023/07/29 06:29:17;;;;;;;1.30;1.30;;;23.40;99.90;;;;;;946998;148;27694;-73
2023/07/29 06:31:43;;;;;;;1.37;1.27;;;23.40;99.90;;;;;;946287;148;27470;-73
2023/07/29 06:34:10;;;;;;;1.50;1.40;;;23.50;99.90;;;;;;953450;146;27361;-73
2023/07/29 06:36:37;;;;;;;1.57;1.42;;;23.50;99.90;;;;;;953754;146;27285;-73
2023/07/29 06:39:03;;;;;;;1.65;1.55;;;23.50;99.90;;;;;;947499;148;27322;-73
2023/07/29 06:41:30;;;;;;;1.50;1.40;;;23.50;99.90;;;;;;931361;149;27438;-73
2023/07/29 06:43:56;;;;;;;1.82;1.40;;;23.40;99.90;;;;;;948926;146;27909;-72
2023/07/29 06:46:23;;;;;;;1.50;1.40;;;23.40;99.90;;;;;;932271;149;27370;-73
2023/07/29 06:48:50;;;;;;;1.75;1.50;;;23.40;99.90;;;;;;932027;149;27370;-73
2023/07/29 06:51:16;;;;;;;1.70;1.60;;;23.30;99.90;;;;;;932879;149;27338;-73
2023/07/29 06:53:43;;;;;;;1.77;1.67;;;23.30;99.90;;;;;;948626;146;27438;-73
2023/07/29 06:56:09;;;;;;;1.32;1.22;;;23.30;99.90;;;;;;954221;146;27379;-73
2023/07/29 06:58:36;;;;;;;1.90;1.60;;;23.20;99.90;;;;;;948930;146;27423;-73
2023/07/29 07:01:03;;;;;;;1.55;1.45;;;23.20;99.90;;;;;;931987;149;27342;-73
2023/07/29 07:03:29;;;;;;;2.15;1.32;;;23.20;99.90;;;;;;932488;149;27443;-73
2023/07/29 07:05:56;;;;;;;1.27;1.27;;;23.20;99.90;;;;;;953449;147;27433;-73
2023/07/29 07:08:22;;;;;;;1.50;1.40;;;23.20;99.90;;;;;;954278;146;27418;-73
2023/07/29 07:10:49;;;;;;;1.82;1.55;;;23.20;99.90;;;;;;953944;146;27413;-73
2023/07/29 07:13:16;;;;;;;1.82;1.72;;;23.20;99.90;;;;;;954264;146;27412;-73
2023/07/29 07:15:42;;;;;;;2.12;1.55;;;23.20;99.90;;;;;;954069;146;27391;-73
2023/07/29 07:18:09;;;;;;;1.70;1.55;;;23.20;99.90;;;;;;954571;146;27382;-73
2023/07/29 07:20:35;;;;;;;2.55;1.57;;;23.20;99.90;;;;;;954331;146;27350;-73
2023/07/29 07:23:02;;;;;;;1.70;1.60;;;23.30;99.90;;;;;;949200;147;27788;-73
2023/07/29 07:25:28;;;;;;;1.35;1.25;;;23.30;99.90;;;;;;941603;149;27365;-73
2023/07/29 07:27:55;;;;;;;1.92;1.80;;;23.30;99.90;;;;;;941925;149;27322;-73
2023/07/29 07:30:22;;;;;;;1.60;1.50;;;23.30;99.90;;;;;;933746;150;27361;-73
2023/07/29 07:32:49;;;;;;;1.70;1.60;;;23.30;99.90;;;;;;950541;147;27452;-72
2023/07/29 07:35:15;;;;;;;1.60;1.50;;;23.30;99.90;;;;;;950105;147;27377;-75
2023/07/29 07:37:41;;;;;;;3.20;1.72;;;23.20;99.90;;;;;;947828;147;27418;-75
2023/07/29 07:40:08;;;;;;;1.67;1.52;;;23.20;99.90;;;;;;941313;149;27381;-75
2023/07/29 07:42:35;;;;;;;2.27;1.32;;;23.20;99.90;;;;;;942069;149;27755;-75
2023/07/29 07:45:01;;;;;;;1.22;1.17;;;23.20;99.90;;;;;;942301;149;27450;-75
2023/07/29 07:47:28;;;;;;;1.52;1.42;;;23.10;99.90;;;;;;948852;147;27321;-75
2023/07/29 07:49:54;;;;;;;1.62;1.52;;;23.00;99.90;;;;;;941502;149;27438;-75
2023/07/29 07:52:21;;;;;;;2.30;1.40;;;23.00;99.90;;;;;;942375;149;27322;-75
2023/07/29 07:54:48;;;;;;;1.62;1.25;;;23.00;99.90;;;;;;941886;149;27434;-75
2023/07/29 07:57:14;;;;;;;1.07;1.07;;;22.90;99.90;;;;;;933047;150;27420;-75
2023/07/29 07:59:41;;;;;;;1.32;1.22;;;22.90;99.90;;;;;;949619;147;27337;-75
2023/07/29 08:02:07;;;;;;;1.70;1.60;;;22.90;99.90;;;;;;950162;147;27327;-75
2023/07/29 08:04:34;;;;;;;1.92;1.50;;;22.80;99.90;;;;;;947420;146;27315;-75
2023/07/29 08:07:00;;;;;;;1.37;1.27;;;22.80;99.90;;;;;;948573;146;27333;-75
2023/07/29 08:09:27;;;;;;;1.20;1.20;;;22.80;99.90;;;;;;933557;150;27379;-76
2023/07/29 08:11:54;;;;;;;1.40;1.30;;;22.80;99.90;;;;;;949737;147;27302;-76
2023/07/29 08:14:20;;;;;;;1.22;1.22;;;22.80;99.90;;;;;;947592;146;27312;-76
2023/07/29 08:16:47;;;;;;;1.55;1.45;;;22.80;99.90;;;;;;949023;146;27436;-75
2023/07/29 08:19:14;;;;;;;1.92;1.65;;;22.90;99.90;;;;;;950718;147;27336;-75
2023/07/29 08:21:40;;;;;;;1.60;1.50;;;23.00;99.90;;;;;;927212;149;27399;-76
2023/07/29 08:24:07;;;;;;;2.37;1.20;;;23.10;99.90;;;;;;949270;147;27339;-75
2023/07/29 08:26:33;;;;;;;1.40;1.30;;;23.20;99.90;;;;;;950056;147;27436;-76
2023/07/29 08:29:00;;;;;;;1.37;1.12;;;23.30;99.90;;;;;;948252;147;27342;-76
2023/07/29 08:31:26;;;;;;;1.65;1.10;;;23.50;99.90;;;;;;949400;146;27358;-76
2023/07/29 08:33:53;;;;;;;2.22;1.40;;;23.60;99.90;;;;;;949569;147;27458;-76
2023/07/29 08:36:20;;;;;;;1.05;1.00;;;23.70;99.90;;;;;;949777;147;27409;-75
2023/07/29 08:38:46;;;;;;;2.12;1.10;;;23.80;99.90;;;;;;950143;147;27786;-76
2023/07/29 08:41:24;;;;;;;1.00;1.00;;;23.90;99.90;;;;;;947975;147;27337;-76
2023/07/29 08:43:51;;;;;;;1.10;1.05;;;24.10;99.90;;;;;;947715;147;27375;-75
2023/07/29 08:46:18;;;;;;;0.95;0.95;;;24.30;99.90;;;;;;935098;148;27442;-76
2023/07/29 08:48:44;;;;;;;1.80;1.30;;;24.50;99.90;;;;;;932212;150;27331;-76
2023/07/29 08:51:11;;;;;;;0.90;0.90;;;24.70;99.90;;;;;;949641;147;27345;-76
2023/07/29 08:53:37;;;;;;;1.02;0.78;;;25.10;99.90;;;;;;949365;147;27407;-76
2023/07/29 08:56:05;;;;;;;0.90;0.90;;;25.50;99.90;;;;;;948541;147;27427;-76
2023/07/29 08:58:31;;;;;;;1.07;0.95;;;25.90;99.90;;;;;;925930;150;27315;-76
2023/07/29 09:00:57;;;;;;;0.82;0.70;;;26.40;99.90;;;;;;949401;147;27353;-76
2023/07/29 09:03:24;;;;;;;0.90;0.90;;;26.80;99.90;;;;;;947985;147;27349;-76
2023/07/29 09:05:50;;;;;;;1.07;1.07;;;27.30;99.90;;;;;;933536;149;27354;-76
2023/07/29 09:08:17;;;;;;;1.47;1.37;;;27.90;99.90;;;;;;949159;147;27461;-76
2023/07/29 09:10:44;;;;;;;0.85;0.85;;;28.40;99.90;;;;;;949729;147;27325;-76
2023/07/29 09:13:10;;;;;;;1.10;1.00;;;29.10;99.90;;;;;;925151;150;27469;-76
2023/07/29 09:15:37;;;;;;;0.93;0.85;;;29.60;99.90;;;;;;948041;147;27859;-76
2023/07/29 09:18:09;;;;;;;1.80;1.00;;;30.00;99.90;;;;;;926218;150;27339;-76
2023/07/29 09:20:36;;;;;;;0.70;0.70;;;30.20;97.50;;;;;;941745;149;27498;-76
2023/07/29 09:23:02;;;;;;;1.45;0.68;;;30.40;95.90;;;;;;941228;149;27991;-76
2023/07/29 09:25:29;;;;;;;1.02;0.80;;;30.60;95.20;;;;;;940746;148;27339;-76
2023/07/29 09:27:59;;;;;;;1.65;1.20;;;30.70;94.40;;;;;;942103;149;27337;-76
2023/07/29 09:30:25;;;;;;;1.30;0.70;;;30.80;94.10;;;;;;949926;147;27936;-76
2023/07/29 09:32:58;;;;;;;1.22;1.12;;;31.00;93.40;;;;;;950364;147;27434;-76
2023/07/29 09:35:24;;;;;;;0.70;0.70;;;31.30;93.30;;;;;;928387;149;27391;-76
2023/07/29 09:37:51;;;;;;;0.88;0.88;;;31.70;93.70;;;;;;949873;147;26413;-76
2023/07/29 09:40:17;;;;;;;0.82;0.80;;;32.20;94.30;;;;;;949343;146;26202;-76
2023/07/29 09:42:56;;;;;;;0.57;0.57;;;32.70;93.60;;;;;;932718;150;26346;-76
2023/07/29 09:45:26;;;;;;;0.72;0.72;;;33.40;91.60;;;;;;949871;147;26268;-76
2023/07/29 09:47:52;;;;;;;1.00;0.90;;;34.00;86.40;;;;;;948977;147;26374;-76
2023/07/29 09:50:19;;;;;;;1.20;0.70;;;34.50;80.50;;;;;;926114;150;26231;-76
2023/07/29 09:52:45;;;;;;;0.90;0.85;;;34.90;79.40;;;;;;942124;149;26273;-76
2023/07/29 09:55:12;;;;;;;0.68;0.60;;;35.20;78.60;;;;;;932781;150;26378;-76
2023/07/29 09:57:39;;;;;;;0.47;0.47;;;35.60;76.20;;;;;;949634;147;26290;-77
2023/07/29 10:00:10;;;;;;;0.85;0.85;;;35.90;73.50;;;;;;950921;147;26177;-76
2023/07/29 10:02:32;;;;;;;0.60;0.60;;;36.30;72.20;;;;;;949795;147;26241;-76
2023/07/29 10:04:58;;;;;;;0.70;0.70;;;36.60;71.80;;;;;;949185;146;26252;-77
2023/07/29 10:07:25;;;;;;;0.60;0.60;;;36.70;69.00;;;;;;926644;150;26273;-76
2023/07/29 10:09:52;;;;;;;0.75;0.75;;;36.90;66.60;;;;;;950902;147;26298;-76
2023/07/29 10:12:18;;;;;;;0.93;0.82;;;36.90;64.90;;;;;;926827;150;26228;-76
2023/07/29 10:14:45;;;;;;;0.55;0.55;;;36.70;63.10;;;;;;942679;149;26323;-76
2023/07/29 10:17:11;;;;;;;0.70;0.70;;;36.50;62.30;;;;;;947921;147;26315;-76
2023/07/29 10:19:38;;;;;;;1.32;0.80;;;36.20;62.20;;;;;;948184;147;26246;-76
2023/07/29 10:22:05;;;;;;;0.70;0.70;;;35.90;62.10;;;;;;942176;149;27424;-76
2023/07/29 10:24:31;;;;;;;0.60;0.60;;;35.70;63.10;;;;;;940381;149;26269;-76
2023/07/29 10:26:58;;;;;;;0.85;0.85;;;35.50;62.60;;;;;;939430;152;27361;-76
2023/07/29 10:29:24;;;;;;;0.78;0.78;;;35.30;62.10;;;;;;947207;151;26334;-76
2023/07/29 10:31:53;;;;;;;0.50;0.50;;;35.20;61.70;;;;;;946404;148;26318;-76
2023/07/29 10:34:20;;;;;;;0.70;0.70;;;35.10;61.00;;;;;;946389;148;27419;-76
2023/07/29 10:36:47;;;;;;;0.78;0.78;;;34.90;60.80;;;;;;946615;148;27318;-76
2023/07/29 10:39:13;;;;;;;0.53;0.53;;;34.70;59.90;;;;;;946995;148;27449;-76
2023/07/29 10:42:01;;;;;;;0.50;0.50;;;34.50;59.50;;;;;;946952;148;27387;-76
2023/07/29 10:44:42;;;;;;;0.85;0.85;;;34.30;59.50;;;;;;946498;148;27736;-76
2023/07/29 10:47:20;;;;;;;0.78;0.78;;;34.10;59.50;;;;;;947234;148;27404;-76
2023/07/29 10:49:50;;;;;;;0.65;0.65;;;33.90;59.40;;;;;;946633;148;27328;-76
2023/07/29 10:52:16;;;;;;;0.80;0.80;;;33.60;59.50;;;;;;946897;151;27297;-76
2023/07/29 10:54:43;;;;;;;1.67;0.80;;;33.40;59.10;;;;;;944979;148;27324;-76
2023/07/29 10:57:10;;;;;;;1.00;1.00;;;33.20;59.30;;;;;;946832;151;27336;-76
2023/07/29 10:59:36;;;;;;;0.85;0.85;;;33.00;59.40;;;;;;946546;148;27369;-76
2023/07/29 11:02:03;;;;;;;0.57;0.53;;;32.80;59.60;;;;;;947454;148;27388;-76
2023/07/29 11:04:30;;;;;;;0.62;0.62;;;32.60;59.70;;;;;;944776;151;27357;-76
2023/07/29 11:07:04;;;;;;;0.70;0.70;;;32.50;60.00;;;;;;946298;148;27340;-76
2023/07/29 11:09:41;;;;;;;1.05;0.70;;;32.40;60.60;;;;;;944494;148;27326;-72
2023/07/29 11:12:07;;;;;;;1.10;1.10;;;32.40;60.80;;;;;;946572;148;27414;-73
2023/07/29 11:14:33;;;;;;;2.05;0.90;;;32.50;61.20;;;;;;935090;148;27327;-72
2023/07/29 11:17:00;;;;;;;1.07;0.98;;;32.50;60.70;;;;;;952731;148;27349;-72
2023/07/29 11:19:26;;;;;;;1.75;0.70;;;32.60;60.70;;;;;;953741;147;27344;-72
2023/07/29 11:21:53;;;;;;;0.78;0.78;;;32.70;60.20;;;;;;953615;148;27328;-72
2023/07/29 11:24:20;;;;;;;0.90;0.90;;;32.80;59.70;;;;;;932199;148;27477;-72
2023/07/29 11:26:49;;;;;;;0.80;0.80;;;32.80;59.40;;;;;;937312;149;27932;-71
2023/07/29 11:29:15;;;;;;;0.85;0.85;;;32.90;59.40;;;;;;931351;149;27446;-71
2023/07/29 11:31:42;;;;;;;1.52;0.95;;;32.80;59.00;;;;;;933146;150;27362;-71
2023/07/29 11:34:09;;;;;;;0.98;0.68;;;32.90;58.90;;;;;;932134;149;27399;-71
2023/07/29 11:36:35;;;;;;;0.80;0.80;;;32.90;58.90;;;;;;934033;150;27412;-71
2023/07/29 11:39:02;;;;;;;1.15;1.00;;;32.90;59.00;;;;;;934152;150;27432;-72
2023/07/29 11:41:28;;;;;;;0.75;0.75;;;32.90;59.20;;;;;;929032;149;27428;-72
2023/07/29 11:43:55;;;;;;;1.35;1.10;;;32.90;59.00;;;;;;933607;150;27346;-72
2023/07/29 11:46:22;;;;;;;1.50;1.37;;;33.00;58.60;;;;;;931225;149;27461;-72
2023/07/29 11:48:48;;;;;;;1.00;1.00;;;33.00;58.30;;;;;;932328;149;27375;-72
2023/07/29 11:51:15;;;;;;;0.70;0.70;;;33.00;59.10;;;;;;937285;149;27318;-72
2023/07/29 11:53:41;;;;;;;1.07;0.90;;;33.00;58.10;;;;;;933087;149;27424;-72
2023/07/29 11:56:08;;;;;;;0.82;0.82;;;33.00;58.00;;;;;;933587;150;27387;-72
2023/07/29 11:58:35;;;;;;;0.90;0.90;;;33.00;57.70;;;;;;917143;152;27418;-71
2023/07/29 12:01:01;;;;;;;0.93;0.90;;;33.10;57.60;;;;;;916978;153;27376;-72
2023/07/29 12:03:28;;;;;;;1.05;1.05;;;33.00;58.20;;;;;;928697;151;27343;-72
2023/07/29 12:05:54;;;;;;;1.00;1.00;;;33.00;57.40;;;;;;928631;151;27449;-72
2023/07/29 12:08:21;;;;;;;2.02;1.00;;;33.00;57.60;;;;;;928604;151;27498;-72
2023/07/29 12:10:47;;;;;;;1.10;1.10;;;33.10;58.20;;;;;;928634;151;27332;-71
2023/07/29 12:13:14;;;;;;;1.07;0.80;;;33.00;57.90;;;;;;928604;151;27371;-72
2023/07/29 12:15:41;;;;;;;0.95;0.88;;;32.90;57.40;;;;;;928617;151;27352;-72
2023/07/29 12:18:07;;;;;;;0.90;0.90;;;32.80;57.30;;;;;;928599;149;27364;-72
2023/07/29 12:20:34;;;;;;;1.00;0.90;;;32.70;57.60;;;;;;928362;151;27681;-72
2023/07/29 12:23:05;;;;;;;1.92;1.10;;;32.60;57.70;;;;;;928626;151;27358;-72
2023/07/29 12:25:30;;;;;;;1.47;1.22;;;32.40;57.80;;;;;;935525;148;27503;-72
2023/07/29 12:27:56;;;;;;;1.07;1.07;;;32.20;57.60;;;;;;942692;148;27809;-71
2023/07/29 12:30:24;;;;;;;1.02;0.98;;;32.00;57.80;;;;;;945588;149;27423;-72
2023/07/29 12:32:50;;;;;;;1.45;1.30;;;31.80;58.20;;;;;;944950;149;27449;-72
2023/07/29 12:35:16;;;;;;;1.00;1.00;;;31.60;58.60;;;;;;945625;149;27358;-72
2023/07/29 12:37:43;;;;;;;1.05;1.00;;;31.40;59.10;;;;;;945164;149;27380;-72
2023/07/29 12:40:22;;;;;;;2.83;1.00;;;31.20;59.30;;;;;;944925;149;27439;-71
2023/07/29 12:42:48;;;;;;;1.27;0.95;;;31.20;59.70;;;;;;945161;149;27326;-71
2023/07/29 12:45:14;;;;;;;1.00;0.90;;;31.10;59.90;;;;;;945361;149;27327;-72
2023/07/29 12:47:41;;;;;;;1.10;1.00;;;31.00;60.10;;;;;;944847;149;27368;-72